Time;durP1;ratioP1;P1;durP2;ratioP2;P2;SDS_P1;SDS_P2;PMS_P1;PMS_P2;Temp;Humidity;BMP_temperature;BMP_pressure;BME280_temperature;BME280_humidity;BME280_pressure;Samples;Min_cycle;Max_cycle;Signal;HPM_P1;HPM_P2
2023/09/08 00:02:25;;;;;;;3.17;2.78;;;25.60;62.50;;;;;;5035726;28;20457;-81
2023/09/08 00:04:51;;;;;;;2.88;2.25;;;25.60;62.60;;;;;;5052948;28;20021;-82
2023/09/08 00:07:17;;;;;;;3.30;2.65;;;25.50;62.50;;;;;;5052282;28;20087;-82
2023/09/08 00:09:43;;;;;;;3.05;2.65;;;25.50;62.50;;;;;;5054008;28;20025;-82
2023/09/08 00:12:09;;;;;;;3.17;2.80;;;25.50;62.60;;;;;;5035976;28;20035;-82
2023/09/08 00:14:34;;;;;;;3.65;2.90;;;25.40;62.50;;;;;;5036107;28;20037;-80
2023/09/08 00:17:00;;;;;;;3.78;2.75;;;25.40;62.50;;;;;;5035887;28;20040;-82
2023/09/08 00:19:26;;;;;;;4.03;3.20;;;25.40;62.60;;;;;;5053080;28;20055;-82
2023/09/08 00:21:52;;;;;;;4.72;3.05;;;25.40;62.60;;;;;;5053268;28;20158;-82
2023/09/08 00:24:18;;;;;;;3.83;2.95;;;25.40;62.70;;;;;;5036305;28;20443;-81
2023/09/08 00:26:44;;;;;;;3.45;2.63;;;25.40;62.70;;;;;;5053737;28;20119;-82
2023/09/08 00:29:10;;;;;;;3.78;2.83;;;25.30;62.60;;;;;;5053266;28;20067;-82
2023/09/08 00:31:36;;;;;;;3.38;2.72;;;25.30;62.60;;;;;;5036159;28;20060;-82
2023/09/08 00:34:01;;;;;;;3.85;2.85;;;25.30;62.60;;;;;;5036207;28;20025;-82
2023/09/08 00:36:27;;;;;;;3.85;2.90;;;25.20;62.60;;;;;;5052792;28;20466;-82
2023/09/08 00:38:53;;;;;;;3.45;2.78;;;25.20;62.60;;;;;;5041556;28;20033;-82
2023/09/08 00:41:19;;;;;;;3.45;2.83;;;25.20;62.60;;;;;;5060295;28;20067;-81
2023/09/08 00:43:45;;;;;;;3.80;3.03;;;25.10;62.60;;;;;;5046790;28;20033;-82
2023/09/08 00:46:11;;;;;;;4.18;2.78;;;25.10;62.60;;;;;;5030532;28;20106;-82
2023/09/08 00:48:38;;;;;;;3.60;2.75;;;25.10;62.70;;;;;;5062829;28;20041;-82
2023/09/08 00:51:07;;;;;;;3.47;2.88;;;25.10;62.70;;;;;;5065444;28;20092;-82
2023/09/08 00:53:33;;;;;;;3.58;3.03;;;25.10;62.70;;;;;;5030877;28;20037;-82
2023/09/08 00:56:00;;;;;;;3.03;2.72;;;25.00;62.70;;;;;;5062653;28;20021;-81
2023/09/08 00:58:25;;;;;;;3.35;2.72;;;25.00;62.80;;;;;;5044541;28;20099;-81
2023/09/08 01:00:51;;;;;;;3.88;3.08;;;25.00;62.80;;;;;;5035994;28;20025;-81
2023/09/08 01:03:17;;;;;;;3.75;2.85;;;24.90;62.80;;;;;;5020154;28;20462;-81
2023/09/08 01:05:46;;;;;;;3.60;2.70;;;24.90;62.80;;;;;;5035755;28;20086;-82
2023/09/08 01:08:13;;;;;;;3.40;2.67;;;24.90;62.80;;;;;;5051865;28;20064;-81
2023/09/08 01:10:41;;;;;;;3.65;3.03;;;24.80;62.80;;;;;;5036459;28;20071;-81
2023/09/08 01:13:08;;;;;;;3.70;2.90;;;24.80;62.80;;;;;;5053422;28;20049;-82
2023/09/08 01:15:33;;;;;;;4.03;3.08;;;24.80;62.80;;;;;;5020497;28;20086;-82
2023/09/08 01:18:00;;;;;;;4.10;2.90;;;24.80;62.90;;;;;;5039039;28;20056;-82
2023/09/08 01:21:05;;;;;;;4.05;3.10;;;24.80;62.90;;;;;;5039624;28;20037;-81
2023/09/08 01:23:46;;;;;;;3.90;2.88;;;24.70;62.90;;;;;;5056336;28;20029;-83
2023/09/08 01:26:20;;;;;;;3.97;2.92;;;24.70;62.90;;;;;;5039759;28;20063;-82
2023/09/08 01:28:50;;;;;;;3.28;2.70;;;24.60;62.90;;;;;;5056129;28;20029;-83
2023/09/08 01:31:17;;;;;;;3.38;2.58;;;24.60;62.90;;;;;;5039059;28;20025;-82
2023/09/08 01:33:44;;;;;;;4.00;3.10;;;24.60;63.00;;;;;;5039648;28;20021;-83
2023/09/08 01:36:10;;;;;;;4.05;3.08;;;24.50;62.90;;;;;;5038999;28;20025;-82
2023/09/08 01:38:36;;;;;;;3.83;2.92;;;24.50;63.00;;;;;;5038511;28;20044;-81
2023/09/08 01:41:02;;;;;;;4.28;3.10;;;24.50;63.00;;;;;;5023030;28;20032;-82
2023/09/08 01:43:28;;;;;;;3.72;2.88;;;24.50;63.10;;;;;;5039613;28;20116;-83
2023/09/08 01:45:54;;;;;;;4.13;3.22;;;24.40;63.00;;;;;;5039476;28;20063;-82
2023/09/08 01:48:20;;;;;;;3.88;3.03;;;24.40;63.10;;;;;;5057127;28;20058;-82
2023/09/08 01:50:47;;;;;;;4.00;3.00;;;24.40;63.10;;;;;;5032022;28;20082;-82
2023/09/08 01:53:13;;;;;;;4.63;3.30;;;24.40;63.20;;;;;;5023462;28;20032;-83
2023/09/08 01:55:39;;;;;;;3.92;3.17;;;24.40;63.20;;;;;;5038877;28;20091;-82
2023/09/08 01:58:04;;;;;;;3.90;3.05;;;24.30;63.20;;;;;;5038331;28;20121;-82
2023/09/08 02:00:31;;;;;;;3.45;2.83;;;24.30;63.20;;;;;;5038366;28;20075;-82
2023/09/08 02:02:57;;;;;;;3.95;3.13;;;24.30;63.30;;;;;;5039044;28;20052;-82
2023/09/08 02:05:25;;;;;;;3.65;3.10;;;24.20;63.20;;;;;;5037800;28;20071;-82
2023/09/08 02:07:51;;;;;;;4.25;3.08;;;24.20;63.20;;;;;;5021714;28;20061;-83
2023/09/08 02:10:17;;;;;;;3.65;2.80;;;24.20;63.20;;;;;;5038197;28;20063;-82
2023/09/08 02:12:42;;;;;;;4.05;3.22;;;24.20;63.30;;;;;;5054351;28;20083;-82
2023/09/08 02:15:11;;;;;;;4.72;3.47;;;24.20;63.30;;;;;;5038517;28;20473;-78
2023/09/08 02:17:36;;;;;;;3.80;2.80;;;24.10;63.30;;;;;;5037511;28;20029;-78
2023/09/08 02:20:03;;;;;;;4.05;3.30;;;24.10;63.30;;;;;;5055036;28;20086;-78
2023/09/08 02:22:29;;;;;;;3.63;2.70;;;24.10;63.40;;;;;;5037636;28;20033;-77
2023/09/08 02:24:56;;;;;;;3.33;2.78;;;24.00;63.30;;;;;;5037337;28;20440;-78
2023/09/08 02:27:22;;;;;;;3.88;3.28;;;24.00;63.40;;;;;;5036605;28;20045;-77
2023/09/08 02:29:50;;;;;;;4.05;3.08;;;24.00;63.40;;;;;;5037959;28;20030;-78
2023/09/08 02:32:15;;;;;;;3.85;3.25;;;24.00;63.40;;;;;;5054310;28;20067;-79
2023/09/08 02:34:42;;;;;;;3.78;2.72;;;24.00;63.40;;;;;;5053866;28;20041;-79
2023/09/08 02:37:08;;;;;;;4.28;3.03;;;23.90;63.40;;;;;;5037412;28;20041;-79
2023/09/08 02:39:35;;;;;;;4.20;3.20;;;23.90;63.50;;;;;;5037281;28;20385;-78
2023/09/08 02:42:01;;;;;;;3.97;3.25;;;23.90;63.50;;;;;;5037519;28;20029;-78
2023/09/08 02:44:27;;;;;;;4.95;3.60;;;23.80;63.80;;;;;;5020527;28;20107;-78
2023/09/08 02:46:53;;;;;;;4.05;3.17;;;23.80;63.50;;;;;;5053295;28;20098;-79
2023/09/08 02:49:19;;;;;;;4.32;3.30;;;23.80;63.60;;;;;;5036847;28;20036;-78
2023/09/08 02:51:45;;;;;;;4.15;3.28;;;23.80;63.60;;;;;;5053477;28;20028;-78
2023/09/08 02:54:11;;;;;;;4.82;3.30;;;23.80;63.70;;;;;;5037793;28;20424;-79
2023/09/08 02:56:37;;;;;;;4.75;3.30;;;23.70;63.60;;;;;;5053390;28;20029;-80
2023/09/08 02:59:02;;;;;;;4.45;3.22;;;23.70;63.60;;;;;;5053791;28;20029;-80
2023/09/08 03:01:29;;;;;;;4.35;3.40;;;23.60;63.60;;;;;;5020094;28;20529;-79
2023/09/08 03:03:54;;;;;;;4.68;3.22;;;23.60;63.60;;;;;;5053562;28;20071;-78
2023/09/08 03:06:21;;;;;;;4.07;3.35;;;23.60;63.70;;;;;;5053023;28;20053;-76
2023/09/08 03:08:47;;;;;;;4.18;3.15;;;23.60;63.70;;;;;;5054997;28;20036;-79
2023/09/08 03:11:13;;;;;;;4.72;3.00;;;23.60;63.80;;;;;;5036810;28;20075;-78
2023/09/08 03:13:39;;;;;;;4.40;3.60;;;23.50;63.80;;;;;;5036674;28;20393;-79
2023/09/08 03:16:06;;;;;;;4.00;3.17;;;23.50;64.40;;;;;;5020038;28;20033;-78
2023/09/08 03:18:33;;;;;;;5.00;3.78;;;23.50;63.80;;;;;;5036807;28;20033;-80
2023/09/08 03:21:03;;;;;;;5.28;3.47;;;23.50;63.90;;;;;;5052971;28;20033;-79
2023/09/08 03:23:29;;;;;;;4.05;3.10;;;23.50;63.90;;;;;;5052929;28;20549;-80
2023/09/08 03:25:54;;;;;;;3.72;3.10;;;23.40;63.90;;;;;;5052834;28;20175;-79
2023/09/08 03:28:20;;;;;;;4.50;3.47;;;23.40;63.90;;;;;;5052894;28;20501;-79
2023/09/08 03:30:46;;;;;;;3.92;3.17;;;23.40;63.90;;;;;;5019823;28;20029;-78
2023/09/08 03:33:12;;;;;;;4.97;3.63;;;23.30;63.90;;;;;;5052817;28;20154;-79
2023/09/08 03:35:38;;;;;;;4.30;3.55;;;23.30;63.90;;;;;;5019710;28;20025;-79
2023/09/08 03:38:03;;;;;;;4.32;3.42;;;23.30;64.00;;;;;;5019432;28;20075;-80
2023/09/08 03:40:29;;;;;;;4.53;3.33;;;23.30;64.00;;;;;;5053287;28;20033;-78
2023/09/08 03:42:56;;;;;;;6.13;3.70;;;23.30;64.00;;;;;;5036253;28;20129;-78
2023/09/08 03:45:22;;;;;;;4.38;3.53;;;23.20;64.00;;;;;;5052621;28;20123;-78
2023/09/08 03:47:48;;;;;;;4.30;3.50;;;23.20;64.10;;;;;;5053973;28;20052;-78
2023/09/08 03:50:15;;;;;;;4.60;3.28;;;23.20;64.10;;;;;;5036353;28;20029;-79
2023/09/08 03:52:40;;;;;;;5.18;3.95;;;23.20;64.10;;;;;;5052600;28;20108;-79
2023/09/08 03:55:06;;;;;;;4.82;3.60;;;23.10;64.00;;;;;;5036740;28;20366;-79
2023/09/08 03:57:32;;;;;;;4.53;3.33;;;23.10;64.10;;;;;;5019452;28;20520;-79
2023/09/08 03:59:58;;;;;;;4.80;3.55;;;23.10;64.10;;;;;;5036084;28;20409;-78
2023/09/08 04:02:24;;;;;;;4.50;3.38;;;23.10;64.10;;;;;;5019471;28;20028;-78
2023/09/08 04:04:50;;;;;;;4.60;3.53;;;23.00;64.10;;;;;;5035825;28;20114;-79
2023/09/08 04:07:15;;;;;;;4.47;3.88;;;23.00;64.20;;;;;;5052930;28;20373;-79
2023/09/08 04:09:42;;;;;;;4.93;3.65;;;23.00;64.20;;;;;;5052265;28;20123;-78
2023/09/08 04:12:10;;;;;;;4.80;4.00;;;22.90;64.20;;;;;;5053061;28;20029;-78
2023/09/08 04:14:36;;;;;;;4.65;3.60;;;23.00;64.30;;;;;;5036370;28;20393;-78
2023/09/08 04:17:02;;;;;;;4.40;3.40;;;22.90;64.20;;;;;;5035746;28;20037;-79
2023/09/08 04:19:28;;;;;;;4.97;3.75;;;22.90;64.20;;;;;;5052299;28;20036;-78
2023/09/08 04:21:54;;;;;;;3.92;3.33;;;22.90;64.30;;;;;;5035780;28;20036;-78
2023/09/08 04:24:20;;;;;;;4.32;3.45;;;22.90;64.30;;;;;;5052139;28;20489;-77
2023/09/08 04:26:46;;;;;;;5.07;3.53;;;22.90;64.40;;;;;;5036233;28;20029;-77
2023/09/08 04:29:12;;;;;;;5.15;4.07;;;22.80;64.30;;;;;;5052526;28;20052;-78
2023/09/08 04:31:38;;;;;;;5.05;3.83;;;22.80;64.30;;;;;;5035532;28;20029;-77
2023/09/08 04:34:04;;;;;;;4.55;3.55;;;22.80;64.40;;;;;;5036386;28;20033;-78
2023/09/08 04:36:30;;;;;;;5.05;3.75;;;22.80;64.40;;;;;;5035369;28;20082;-77
2023/09/08 04:38:56;;;;;;;5.07;3.90;;;22.80;64.50;;;;;;5035770;28;20025;-78
2023/09/08 04:41:22;;;;;;;6.50;3.70;;;22.70;64.50;;;;;;5052150;28;20029;-78
2023/09/08 04:43:48;;;;;;;5.75;4.00;;;22.70;64.50;;;;;;5052125;28;20033;-78
2023/09/08 04:46:14;;;;;;;5.22;3.95;;;22.70;64.50;;;;;;5019420;28;20033;-79
2023/09/08 04:48:40;;;;;;;5.00;4.00;;;22.70;64.60;;;;;;5052567;28;20044;-78
2023/09/08 04:51:07;;;;;;;5.68;3.97;;;22.60;64.60;;;;;;5037656;28;20041;-79
2023/09/08 04:53:33;;;;;;;4.93;3.72;;;22.60;64.60;;;;;;5023364;28;20041;-78
2023/09/08 04:55:59;;;;;;;4.65;3.55;;;22.60;64.60;;;;;;5039124;28;20029;-79
2023/09/08 04:58:25;;;;;;;4.82;3.80;;;22.60;64.60;;;;;;5039376;28;20041;-78
2023/09/08 05:00:51;;;;;;;4.90;4.00;;;22.60;64.70;;;;;;5057000;28;20040;-78
2023/09/08 05:03:17;;;;;;;5.82;3.88;;;22.50;64.70;;;;;;5039112;28;20147;-78
2023/09/08 05:05:43;;;;;;;5.78;3.90;;;22.50;64.70;;;;;;5055721;28;20090;-79
2023/09/08 05:08:08;;;;;;;4.80;3.90;;;22.50;64.80;;;;;;5056759;28;20041;-78
2023/09/08 05:10:34;;;;;;;6.05;3.95;;;22.50;64.80;;;;;;5039048;28;20099;-79
2023/09/08 05:13:00;;;;;;;5.13;3.75;;;22.50;64.90;;;;;;5022381;28;20466;-78
2023/09/08 05:15:27;;;;;;;5.97;4.43;;;22.50;64.90;;;;;;5039734;28;20064;-78
2023/09/08 05:17:54;;;;;;;5.43;3.95;;;22.40;64.90;;;;;;5022552;28;20039;-79
2023/09/08 05:20:21;;;;;;;4.93;4.13;;;22.40;64.90;;;;;;5039147;28;20155;-78
2023/09/08 05:22:47;;;;;;;4.50;3.78;;;22.40;64.90;;;;;;5023191;28;20481;-79
2023/09/08 05:25:13;;;;;;;5.50;4.28;;;22.30;64.90;;;;;;5038641;28;20386;-79
2023/09/08 05:27:39;;;;;;;4.57;3.92;;;22.30;64.90;;;;;;5039294;28;20045;-78
2023/09/08 05:30:05;;;;;;;5.07;3.88;;;22.30;65.00;;;;;;5038691;28;20028;-78
2023/09/08 05:32:33;;;;;;;4.95;3.83;;;22.30;65.10;;;;;;5038839;28;20123;-79
2023/09/08 05:34:59;;;;;;;4.90;3.83;;;22.30;65.10;;;;;;5037995;28;20573;-79
2023/09/08 05:37:25;;;;;;;5.20;4.10;;;22.20;65.10;;;;;;5021787;28;20047;-78
2023/09/08 05:39:50;;;;;;;5.28;4.13;;;22.20;65.00;;;;;;5038890;28;20036;-80
2023/09/08 05:42:16;;;;;;;5.15;4.05;;;22.20;65.10;;;;;;5054747;28;20453;-78
2023/09/08 05:44:42;;;;;;;4.85;3.95;;;22.20;65.10;;;;;;5038485;28;20035;-78
2023/09/08 05:47:08;;;;;;;5.00;4.03;;;22.20;65.20;;;;;;5054610;28;20482;-78
2023/09/08 05:49:34;;;;;;;5.47;4.45;;;22.20;65.20;;;;;;5038245;28;20397;-79
2023/09/08 05:52:00;;;;;;;4.93;4.20;;;22.20;65.20;;;;;;5054528;28;20021;-78
2023/09/08 05:54:30;;;;;;;5.57;4.45;;;22.20;65.20;;;;;;5054769;28;20087;-78
2023/09/08 05:56:55;;;;;;;5.65;4.35;;;22.10;65.20;;;;;;5038443;28;20465;-78
2023/09/08 05:59:21;;;;;;;5.60;4.30;;;22.10;65.30;;;;;;5054622;28;20029;-78
2023/09/08 06:01:47;;;;;;;5.40;4.40;;;22.10;65.30;;;;;;5037848;28;20033;-78
2023/09/08 06:04:13;;;;;;;5.47;4.15;;;22.10;65.30;;;;;;5038281;28;20091;-78
2023/09/08 06:06:39;;;;;;;5.15;4.18;;;22.10;65.40;;;;;;5054741;28;20037;-78
2023/09/08 06:09:07;;;;;;;5.63;4.68;;;22.10;65.40;;;;;;5038020;28;20382;-77
2023/09/08 06:11:33;;;;;;;6.03;4.38;;;22.10;65.40;;;;;;5037904;28;20056;-78
2023/09/08 06:13:59;;;;;;;5.82;4.13;;;22.00;65.40;;;;;;5037606;28;20036;-78
2023/09/08 06:16:27;;;;;;;5.28;3.97;;;22.00;65.40;;;;;;5037901;28;20037;-79
2023/09/08 06:18:53;;;;;;;4.15;3.47;;;22.00;65.40;;;;;;5037237;28;20059;-79
2023/09/08 06:21:19;;;;;;;4.85;3.78;;;22.00;65.40;;;;;;5038709;28;20060;-79
2023/09/08 06:23:45;;;;;;;5.65;4.20;;;22.00;65.50;;;;;;5021275;28;20057;-78
2023/09/08 06:26:13;;;;;;;5.43;4.32;;;22.00;65.50;;;;;;5021275;28;20039;-78
2023/09/08 06:28:41;;;;;;;5.03;3.92;;;22.00;65.50;;;;;;5020684;28;20448;-80
2023/09/08 06:31:07;;;;;;;4.95;3.90;;;22.00;65.60;;;;;;5021306;28;20033;-78
2023/09/08 06:33:33;;;;;;;6.00;4.13;;;22.00;65.60;;;;;;5037633;28;20043;-78
2023/09/08 06:35:59;;;;;;;5.70;4.07;;;22.00;65.60;;;;;;5037410;28;20488;-78
2023/09/08 06:38:25;;;;;;;4.70;3.92;;;22.00;65.60;;;;;;5037203;28;20037;-79
2023/09/08 06:40:52;;;;;;;4.68;3.80;;;22.00;65.60;;;;;;5037201;28;20116;-78
2023/09/08 06:43:19;;;;;;;5.30;4.28;;;22.00;65.60;;;;;;5038271;28;20465;-78
2023/09/08 06:45:51;;;;;;;5.47;4.10;;;22.00;65.70;;;;;;5038253;28;20060;-77
2023/09/08 06:48:18;;;;;;;5.18;4.20;;;22.00;65.70;;;;;;5020412;28;20045;-78
2023/09/08 06:50:43;;;;;;;5.57;4.20;;;22.00;65.70;;;;;;5036690;28;20496;-78
2023/09/08 06:53:10;;;;;;;4.97;3.97;;;22.00;65.70;;;;;;5053572;28;20365;-78
2023/09/08 06:55:36;;;;;;;4.88;3.72;;;22.00;65.70;;;;;;5053261;28;20033;-79
2023/09/08 06:58:02;;;;;;;4.95;4.07;;;22.00;65.70;;;;;;5053462;28;20029;-79
2023/09/08 07:00:28;;;;;;;4.97;3.95;;;22.00;65.80;;;;;;5021273;28;20029;-78
2023/09/08 07:02:54;;;;;;;5.50;4.10;;;22.00;65.80;;;;;;5020465;28;20021;-79
2023/09/08 07:05:19;;;;;;;4.60;3.88;;;22.00;65.80;;;;;;5053748;28;20033;-79
2023/09/08 07:07:46;;;;;;;4.68;3.97;;;22.00;65.80;;;;;;5036350;28;20041;-79
2023/09/08 07:10:12;;;;;;;5.10;3.83;;;22.00;65.80;;;;;;5036640;28;20472;-78
2023/09/08 07:12:38;;;;;;;4.97;3.67;;;22.00;65.80;;;;;;5035893;28;20021;-78
2023/09/08 07:15:04;;;;;;;4.80;3.90;;;22.00;65.80;;;;;;5036786;28;20039;-79
2023/09/08 07:17:30;;;;;;;5.00;4.00;;;22.00;65.90;;;;;;5037370;28;20365;-78
2023/09/08 07:19:56;;;;;;;4.60;3.50;;;22.00;65.80;;;;;;5036743;28;20124;-78
2023/09/08 07:22:22;;;;;;;5.15;3.92;;;22.00;65.80;;;;;;5037077;28;20458;-79
2023/09/08 07:24:47;;;;;;;5.30;4.00;;;22.00;65.90;;;;;;5036789;28;20347;-78
2023/09/08 07:27:16;;;;;;;4.85;3.90;;;22.00;65.80;;;;;;5036535;28;20132;-78
2023/09/08 07:29:42;;;;;;;5.55;4.13;;;22.00;65.90;;;;;;5036697;28;20044;-78
2023/09/08 07:32:08;;;;;;;4.60;3.67;;;22.00;65.90;;;;;;5052880;28;20041;-78
2023/09/08 07:34:34;;;;;;;4.90;3.67;;;22.00;65.90;;;;;;5052722;28;20033;-78
2023/09/08 07:37:01;;;;;;;4.88;3.95;;;22.10;66.00;;;;;;5036460;28;20119;-78
2023/09/08 07:39:27;;;;;;;5.00;3.85;;;22.00;65.90;;;;;;5036523;28;20466;-78
2023/09/08 07:41:54;;;;;;;5.70;4.07;;;22.10;66.00;;;;;;5036061;28;20087;-78
2023/09/08 07:44:19;;;;;;;4.57;3.92;;;22.10;66.00;;;;;;5036984;28;20036;-78
2023/09/08 07:46:48;;;;;;;4.82;3.72;;;22.10;66.00;;;;;;5036072;28;20156;-78
2023/09/08 07:49:15;;;;;;;4.70;3.72;;;22.10;66.00;;;;;;5036517;28;20378;-78
2023/09/08 07:51:40;;;;;;;5.38;4.43;;;22.10;66.10;;;;;;5019534;28;20063;-78
2023/09/08 07:54:06;;;;;;;5.10;3.83;;;22.10;66.10;;;;;;5019301;28;20470;-80
2023/09/08 07:56:32;;;;;;;5.03;3.88;;;22.10;66.10;;;;;;5036038;28;20029;-79
2023/09/08 07:58:58;;;;;;;5.88;4.05;;;22.20;66.10;;;;;;5019759;28;20035;-78
2023/09/08 08:01:24;;;;;;;5.05;4.13;;;22.20;66.20;;;;;;5035924;28;20535;-79
2023/09/08 08:03:49;;;;;;;5.07;4.15;;;22.20;66.20;;;;;;5054268;28;20033;-79
2023/09/08 08:06:17;;;;;;;4.85;3.65;;;22.20;66.20;;;;;;5036094;28;20037;-78
2023/09/08 08:08:42;;;;;;;4.93;3.80;;;22.20;66.20;;;;;;5053468;28;20041;-79
2023/09/08 08:11:13;;;;;;;5.18;4.10;;;22.20;66.20;;;;;;5035889;28;20048;-78
2023/09/08 08:13:39;;;;;;;4.78;3.70;;;22.20;66.20;;;;;;5052506;28;20035;-78
2023/09/08 08:16:05;;;;;;;4.90;4.10;;;22.30;66.30;;;;;;5052609;28;20033;-78
2023/09/08 08:18:31;;;;;;;6.78;4.47;;;22.30;66.30;;;;;;5019273;28;20036;-78
2023/09/08 08:20:56;;;;;;;5.28;4.07;;;22.30;66.30;;;;;;5053087;28;20037;-79
2023/09/08 08:23:22;;;;;;;5.88;3.95;;;22.30;66.40;;;;;;5035946;28;20528;-79
2023/09/08 08:25:49;;;;;;;5.97;3.67;;;22.30;66.50;;;;;;5037543;28;20500;-78
2023/09/08 08:28:15;;;;;;;4.93;3.83;;;22.30;66.50;;;;;;5056155;28;20525;-78
2023/09/08 08:30:40;;;;;;;5.65;4.25;;;22.40;66.50;;;;;;5057069;28;20068;-78
2023/09/08 08:33:06;;;;;;;4.63;3.58;;;22.30;66.40;;;;;;5057259;28;20457;-79
2023/09/08 08:35:32;;;;;;;5.90;4.22;;;22.40;66.40;;;;;;5056436;28;20206;-79
2023/09/08 08:37:59;;;;;;;5.05;3.90;;;22.50;66.50;;;;;;5039832;28;20044;-78
2023/09/08 08:40:26;;;;;;;5.32;4.00;;;22.40;66.40;;;;;;5040316;28;20102;-78
2023/09/08 08:42:57;;;;;;;5.50;4.30;;;22.50;66.40;;;;;;5057392;28;20041;-79
2023/09/08 08:45:27;;;;;;;4.53;3.50;;;22.60;66.40;;;;;;5056790;28;20112;-79
2023/09/08 08:47:53;;;;;;;5.10;4.00;;;22.60;66.20;;;;;;5055687;28;20052;-79
2023/09/08 08:50:20;;;;;;;4.88;3.72;;;22.60;66.10;;;;;;5055931;28;20045;-79
2023/09/08 08:52:46;;;;;;;5.10;4.03;;;22.70;66.10;;;;;;5023094;28;20021;-79
2023/09/08 08:55:15;;;;;;;5.63;4.65;;;22.80;66.00;;;;;;5057382;28;20110;-78
2023/09/08 08:57:41;;;;;;;4.88;3.63;;;22.90;65.90;;;;;;5055611;28;20037;-78
2023/09/08 09:00:09;;;;;;;4.90;3.95;;;22.90;65.80;;;;;;5056615;28;20083;-79
2023/09/08 09:02:40;;;;;;;5.20;3.70;;;23.00;65.80;;;;;;5039053;28;20033;-79
2023/09/08 09:05:11;;;;;;;4.97;4.10;;;23.00;65.70;;;;;;5039107;28;20056;-79
2023/09/08 09:07:37;;;;;;;5.25;4.00;;;23.10;65.70;;;;;;5055731;28;20091;-79
2023/09/08 09:10:04;;;;;;;4.25;3.33;;;23.20;65.70;;;;;;5056169;28;20035;-79
2023/09/08 09:12:30;;;;;;;4.90;3.85;;;23.30;65.60;;;;;;5039621;28;20028;-78
2023/09/08 09:14:59;;;;;;;4.45;3.50;;;23.30;65.50;;;;;;5038611;28;20123;-79
2023/09/08 09:17:25;;;;;;;4.68;3.53;;;23.40;65.60;;;;;;5055323;28;20500;-79
2023/09/08 09:19:50;;;;;;;5.63;3.72;;;23.50;65.50;;;;;;5057172;28;20029;-78
2023/09/08 09:22:21;;;;;;;4.80;3.85;;;23.60;65.50;;;;;;5055425;28;20033;-79
2023/09/08 09:24:48;;;;;;;5.13;3.85;;;23.70;65.60;;;;;;5038545;28;20029;-79
2023/09/08 09:27:14;;;;;;;4.50;3.30;;;23.80;65.60;;;;;;5055437;28;20041;-79
2023/09/08 09:29:47;;;;;;;5.00;4.22;;;23.90;65.60;;;;;;5039366;28;20082;-79
2023/09/08 09:32:15;;;;;;;5.25;3.53;;;24.00;65.60;;;;;;5056612;28;20036;-79
2023/09/08 09:34:53;;;;;;;5.53;4.03;;;24.00;65.40;;;;;;5054912;28;20033;-79
2023/09/08 09:37:19;;;;;;;5.22;3.63;;;24.20;65.40;;;;;;5054440;28;20036;-79
2023/09/08 09:39:53;;;;;;;4.50;3.60;;;24.30;65.30;;;;;;5054988;28;20029;-79
2023/09/08 09:42:23;;;;;;;4.85;3.63;;;24.40;65.40;;;;;;5055703;28;20174;-79
2023/09/08 09:44:51;;;;;;;6.10;3.90;;;24.50;65.20;;;;;;5054567;28;20447;-79
2023/09/08 09:47:17;;;;;;;4.40;3.45;;;24.50;65.10;;;;;;5055768;28;20044;-79
2023/09/08 09:49:48;;;;;;;4.50;3.50;;;24.70;65.20;;;;;;5054019;28;20029;-79
2023/09/08 09:52:21;;;;;;;4.68;3.40;;;24.80;65.20;;;;;;5037079;28;20061;-79
2023/09/08 09:54:47;;;;;;;4.95;3.58;;;24.90;65.10;;;;;;5054076;28;20462;-79
2023/09/08 09:57:14;;;;;;;4.82;3.65;;;25.00;65.10;;;;;;5054843;28;20033;-79
2023/09/08 09:59:41;;;;;;;4.57;3.38;;;25.10;65.10;;;;;;5053751;28;20037;-79
2023/09/08 10:02:12;;;;;;;4.53;3.67;;;25.20;65.20;;;;;;5053726;28;20082;-78
2023/09/08 10:04:40;;;;;;;5.43;4.10;;;25.30;65.30;;;;;;5053722;28;20052;-79
2023/09/08 10:07:07;;;;;;;4.05;3.42;;;25.40;65.30;;;;;;5054622;28;20040;-79
2023/09/08 10:09:33;;;;;;;3.75;3.13;;;25.50;65.30;;;;;;5053348;28;20064;-78
2023/09/08 10:12:08;;;;;;;3.92;3.03;;;25.60;65.40;;;;;;5020345;28;20066;-79
2023/09/08 10:14:36;;;;;;;4.30;3.38;;;25.70;65.60;;;;;;5053330;28;20028;-79
2023/09/08 10:17:03;;;;;;;5.43;3.17;;;25.80;65.50;;;;;;5054922;28;20032;-78
2023/09/08 10:19:30;;;;;;;4.45;3.40;;;25.90;65.50;;;;;;5036822;28;20030;-79
2023/09/08 10:22:00;;;;;;;4.65;3.70;;;26.00;65.70;;;;;;5037376;28;20041;-79
2023/09/08 10:24:34;;;;;;;4.35;3.50;;;26.10;65.80;;;;;;5036618;28;20025;-79
2023/09/08 10:27:11;;;;;;;5.53;4.13;;;26.20;65.90;;;;;;5036708;28;20024;-78
2023/09/08 10:29:38;;;;;;;4.80;3.30;;;26.30;65.90;;;;;;5036778;28;20628;-79
2023/09/08 10:32:07;;;;;;;5.07;3.75;;;26.40;66.00;;;;;;5053052;28;20111;-79
2023/09/08 10:34:35;;;;;;;4.13;3.45;;;26.50;66.00;;;;;;5054240;28;20033;-79
2023/09/08 10:37:01;;;;;;;4.50;3.60;;;26.60;65.90;;;;;;5053257;28;20539;-79
2023/09/08 10:39:36;;;;;;;4.22;3.33;;;26.70;66.00;;;;;;5052675;28;20089;-79
2023/09/08 10:42:19;;;;;;;4.20;3.33;;;26.80;66.20;;;;;;5036508;28;20376;-79
2023/09/08 10:44:50;;;;;;;4.67;3.60;;;26.90;66.40;;;;;;5053827;28;20466;-79
2023/09/08 10:49:21;;;;;;;3.85;3.00;;;27.00;66.30;;;;;;5130942;27;20395;-77
2023/09/08 10:51:48;;;;;;;4.22;3.33;;;27.20;66.30;;;;;;5130985;28;20034;-78
2023/09/08 10:54:40;;;;;;;3.47;2.83;;;27.30;66.50;;;;;;5112740;28;20031;-79
2023/09/08 10:57:12;;;;;;;4.32;3.42;;;27.30;66.70;;;;;;5112579;28;20031;-78
2023/09/08 10:59:38;;;;;;;4.18;3.38;;;27.40;66.80;;;;;;5095312;28;20023;-78
2023/09/08 11:02:04;;;;;;;5.05;3.65;;;27.40;67.00;;;;;;5112500;28;20035;-78
2023/09/08 11:04:32;;;;;;;4.47;3.03;;;27.50;67.10;;;;;;5095600;28;20533;-79
2023/09/08 11:06:58;;;;;;;4.22;3.42;;;27.60;67.50;;;;;;5095825;28;20028;-79
2023/09/08 11:09:23;;;;;;;5.60;3.53;;;27.60;68.20;;;;;;5095208;28;20040;-79
2023/09/08 11:11:50;;;;;;;4.32;3.33;;;27.70;67.90;;;;;;5094978;28;20046;-80
2023/09/08 11:14:16;;;;;;;4.50;3.63;;;27.70;68.10;;;;;;5095335;28;20039;-79
2023/09/08 11:16:43;;;;;;;4.72;3.78;;;27.80;68.40;;;;;;5111838;28;20080;-79
2023/09/08 11:19:10;;;;;;;3.92;3.40;;;27.80;68.60;;;;;;5112254;28;20069;-79
2023/09/08 11:21:36;;;;;;;5.68;3.65;;;27.90;68.80;;;;;;5094926;28;20476;-79
2023/09/08 11:24:06;;;;;;;5.75;3.60;;;28.00;69.20;;;;;;5130776;28;20047;-80
2023/09/08 11:26:35;;;;;;;4.05;3.40;;;28.00;69.30;;;;;;5111953;28;20062;-79
2023/09/08 11:29:01;;;;;;;4.00;3.22;;;28.00;69.40;;;;;;5095052;28;20036;-78
2023/09/08 11:31:26;;;;;;;4.07;3.25;;;28.10;69.60;;;;;;5130135;28;20142;-79
2023/09/08 11:33:55;;;;;;;4.13;3.30;;;28.10;69.70;;;;;;5094734;28;20459;-79
2023/09/08 11:36:21;;;;;;;3.55;3.05;;;28.10;69.90;;;;;;5094831;28;20119;-79
2023/09/08 11:38:46;;;;;;;4.35;3.30;;;28.10;69.90;;;;;;5094445;28;20059;-79
2023/09/08 11:41:13;;;;;;;4.00;3.15;;;28.20;70.10;;;;;;5111718;28;20053;-79
2023/09/08 11:43:39;;;;;;;5.60;3.67;;;28.20;70.30;;;;;;5094505;28;20027;-79
2023/09/08 11:46:05;;;;;;;3.83;3.05;;;28.20;70.30;;;;;;5111894;28;20031;-78
2023/09/08 11:48:32;;;;;;;3.83;3.20;;;28.20;70.40;;;;;;5111356;28;20055;-80
2023/09/08 11:50:58;;;;;;;3.92;3.30;;;28.20;71.00;;;;;;5094756;28;20050;-79
2023/09/08 11:53:25;;;;;;;3.83;3.28;;;28.30;70.50;;;;;;5111742;28;20032;-81
2023/09/08 11:55:51;;;;;;;3.58;2.90;;;28.30;70.50;;;;;;5111166;28;20080;-79
2023/09/08 11:58:18;;;;;;;3.65;3.10;;;28.30;70.60;;;;;;5094646;28;20053;-79
2023/09/08 12:00:47;;;;;;;4.00;3.30;;;28.30;70.70;;;;;;5097331;28;20019;-79
2023/09/08 12:03:16;;;;;;;3.83;3.42;;;28.40;70.80;;;;;;5097781;28;20410;-79
2023/09/08 12:05:43;;;;;;;4.30;3.45;;;28.40;70.80;;;;;;5081111;28;20039;-79
2023/09/08 12:08:09;;;;;;;3.95;3.35;;;28.40;70.80;;;;;;5098438;28;20027;-79
2023/09/08 12:10:42;;;;;;;4.22;3.55;;;28.40;70.70;;;;;;5116166;28;20479;-80
2023/09/08 12:13:09;;;;;;;3.53;3.08;;;28.40;70.60;;;;;;5081523;28;20028;-79
2023/09/08 12:15:43;;;;;;;4.60;3.58;;;28.40;70.40;;;;;;5097755;28;20094;-79
2023/09/08 12:18:17;;;;;;;4.22;3.35;;;28.50;70.40;;;;;;5115652;28;20035;-79
2023/09/08 12:20:43;;;;;;;4.20;2.97;;;28.50;70.30;;;;;;5081171;28;20429;-79
2023/09/08 12:23:19;;;;;;;3.95;3.08;;;28.50;70.20;;;;;;5080584;28;20032;-79
2023/09/08 12:25:46;;;;;;;3.38;2.80;;;28.50;70.80;;;;;;5097289;28;20085;-79
2023/09/08 12:28:12;;;;;;;3.42;3.00;;;28.50;70.00;;;;;;5080510;28;20480;-80
2023/09/08 12:30:39;;;;;;;4.28;3.22;;;28.50;69.90;;;;;;5080479;28;20043;-79
2023/09/08 12:33:04;;;;;;;4.05;3.58;;;28.50;69.90;;;;;;5080285;28;20024;-80
2023/09/08 12:35:31;;;;;;;3.85;3.13;;;28.60;69.80;;;;;;5080321;28;20073;-79
2023/09/08 12:38:01;;;;;;;4.03;3.33;;;28.60;69.60;;;;;;5096819;28;20039;-79
2023/09/08 12:40:28;;;;;;;3.90;3.20;;;28.60;69.50;;;;;;5096937;28;20024;-79
2023/09/08 12:42:55;;;;;;;5.15;3.13;;;28.70;69.30;;;;;;5079880;28;20027;-79
2023/09/08 12:45:25;;;;;;;4.28;3.15;;;28.70;69.20;;;;;;5063547;28;20060;-79
2023/09/08 12:47:51;;;;;;;3.83;3.22;;;28.70;69.10;;;;;;5096914;28;20475;-79
2023/09/08 12:50:17;;;;;;;4.32;3.42;;;28.70;68.90;;;;;;5115246;28;20031;-79